Ana Sayfa
METAR-TAF:

METAR-TAF

Havaalanları :

Wakkanai, Japonya

Enlem: 45-24N, Boylam: 141-48E, yükseklik: 8 m

Güncel hava durumu gözlemi

Rapor saat 05:00 UTC de 52 dakika önce yapıldı.
Rüzgar güneybatıdan 10 kt
Sıcaklık 3°C
Nem 93%
Basınç 996 hPa
Görüş mesafesi: 6000 m
700 ft yükseklikte az bulutlu
1000 ft yükseklikte parçalı bulutlu
4000 ft yükseklikte parçalı çok bulutlu
hafif sağanak yağmurlar

METAR: RJCW 260500Z 23010KT 6000 -SHRA FEW007 SCT010 BKN040 03/02 Q0996

Saat: 14:52 (05:52 UTC)


TAF: eksik

4.000'den fazla havaalanı için hava durumu gözlemleri ve tahminleri (METAR ve TAF raporları).

Kullanılabilir istasyonlar harita üzerinde sarı ve kırmızı noktalarla gösterilir.

İstasyonun adını görmek için fareyi noktanın üzerinde gezdirin.

Sonrasında hava gözlem ve tahminlerini görmek için tıklayın.

Haritayı değiştirmek için: yaklaştırmak için siyah artı işaretli yeşil düğmeye ve uzaklaştırmak için de eksi işaretli düğmeye hızla tıklayın; bitişik haritalar için yeşil okları kullanın.


METAR-TAF: